全部
Norseman Airport (Norseman, Western Australia) YNSM 天气
|
Norseman, Western Australia (YNSM)
晴天
微风 |
|
17 °C |
There is no TAF data available at YNSM or any nearby airports.
YNSM近期METAR历史数据
| Date | Time (AWST) | Flight Rules | Wind Dir. | Speed | Type | Height AGL (ft) | Visibility | Temp (°C) | Temp (°F) | Dew Point (°C) | Dew Point (°F) | Rel. Humid. | Pressure | Density Altitude | Remarks |
|---|---|---|---|---|---|---|---|---|---|---|---|---|---|---|---|
| 04-五月 | 14:00 | n/a | 170° | 5 kt | Missing | 17° | 62° | 9° | 48° | 59% | 1026 mb | 733 ft | |||
| 04-五月 | 13:00 | n/a | 190° | 8 kt | Missing | 16° | 60° | 10° | 50° | 68% | 1026 mb | 613 ft | |||
| 04-五月 | 12:00 | n/a | 160° | 6 kt | Missing | 16° | 60° | 9° | 48° | 63% | 1027 mb | 584 ft | |||
| 04-五月 | 11:00 | n/a | 170° | 5 kt | Missing | 15° | 59° | 10° | 50° | 72% | 1027 mb | 464 ft | |||
| 04-五月 | 10:00 | n/a | 220° | 3 kt | Missing | 15° | 59° | 12° | 53° | 82% | 1028 mb | 434 ft | |||
| 04-五月 | 09:00 | n/a | 200° | 4 kt | Missing | 14° | 57° | 12° | 53° | 88% | 1028 mb | 314 ft | |||
| 04-五月 | 08:00 | n/a | 220° | 4 kt | Missing | 13° | 55° | 12° | 53° | 94% | 1028 mb | 194 ft | |||
| 04-五月 | 07:00 | n/a | 210° | 4 kt | Missing | 12° | 53° | 11° | 51° | 94% | 1027 mb | 104 ft | |||
| 04-五月 | 06:00 | n/a | 210° | 3 kt | Missing | 12° | 53° | 11° | 51° | 94% | 1027 mb | 104 ft | |||
| 04-五月 | 05:00 | n/a | 210° | 4 kt | Missing | 12° | 53° | 11° | 51° | 94% | 1026 mb | 133 ft | |||
| 04-五月 | 04:00 | n/a | Calm | Missing | 11° | 51° | 11° | 51° | 100% | 1026 mb | 13 ft | ||||
| 04-五月 | 03:00 | n/a | Calm | Missing | 11° | 51° | 10° | 50° | 94% | 1026 mb | 13 ft | ||||
| 04-五月 | 02:00 | n/a | 200° | 4 kt | Missing | 11° | 51° | 10° | 50° | 94% | 1026 mb | 13 ft | |||
| 04-五月 | 01:00 | n/a | 220° | 5 kt | Missing | 9° | 48° | 8° | 46° | 93% | 1025 mb | -197 ft | |||
| 04-五月 | 00:00 | n/a | 190° | 6 kt | Missing | 10° | 50° | 9° | 48° | 93% | 1025 mb | -77 ft | |||
| 03-五月 | 23:00 | n/a | 210° | 6 kt | Missing | 8° | 46° | 6° | 42° | 87% | 1025 mb | -317 ft | |||
| 03-五月 | 22:00 | n/a | 200° | 5 kt | Missing | 10° | 50° | 8° | 46° | 87% | 1026 mb | -107 ft | |||
| 03-五月 | 21:00 | n/a | 190° | 5 kt | Missing | 11° | 51° | 8° | 46° | 82% | 1025 mb | 43 ft | |||
| 03-五月 | 20:00 | n/a | 200° | 6 kt | Missing | 12° | 53° | 8° | 46° | 76% | 1025 mb | 163 ft | |||
| 03-五月 | 19:00 | n/a | 190° | 7 kt | Missing | 14° | 57° | 8° | 46° | 67% | 1025 mb | 403 ft | |||
| 03-五月 | 18:00 | n/a | 190° | 6 kt | Missing | 15° | 59° | 8° | 46° | 63% | 1024 mb | 552 ft | |||
| 03-五月 | 17:00 | n/a | 190° | 6 kt | Missing | 17° | 62° | 9° | 48° | 59% | 1023 mb | 822 ft | |||
| 03-五月 | 16:00 | n/a | 210° | 7 kt | Missing | 17° | 62° | 9° | 48° | 59% | 1023 mb | 822 ft | |||
| 03-五月 | 15:00 | n/a | 210° | 9 kt | Missing | 18° | 64° | 9° | 48° | 56% | 1023 mb | 942 ft |
登录
| 您的浏览器不支持. 升级您的浏览器 |
